Lake Harbour, Canada
Current Conditions -  °F | °C
As of 5:00 PM on Tuesday 21 Oct 2014 (Local Time) from CYFB Reporting Station
Broken Clouds Broken Clouds  
Wind Chill:   Ceiling: 8000
Heat Index: 19°   Visibility: 20mi
Dew Point: 14°   Wind: 10mph
Humidity: 80%   Direction: 330°NNW
Pressure: 29.87"   Gusts: NA
Location:  62.85°N, 69.89°W
Report Text: CYFB 212100Z 33009KT 20SM FEW035 BKN080 M07/M10 A2987 RMK SC1AC4 ACSL VIC S SW SLP119
Loading
Personal Weather Stations






























Interactive Weather Map
Tropical Storm Tracking
New forecast layout! Learn more

10-Day Weather Forecast

Advertisements
Track Severe Weather on mobile